createdAt,value
2022-10-17T00:00:49.095Z,13.88
2022-10-17T00:03:16.938Z,13.77
2022-10-17T00:05:47.022Z,13.61
2022-10-17T00:08:16.383Z,13.67
2022-10-17T00:10:44.379Z,13.57
2022-10-17T00:13:13.565Z,13.57
2022-10-17T00:15:45.146Z,13.53
2022-10-17T00:18:12.462Z,13.51
2022-10-17T00:20:39.778Z,13.55
2022-10-17T00:23:07.009Z,13.47
2022-10-17T00:25:34.494Z,13.48
2022-10-17T00:28:01.833Z,13.65
2022-10-17T00:30:29.236Z,13.65
2022-10-17T00:32:57.033Z,13.50
2022-10-17T00:35:24.383Z,13.39
2022-10-17T00:37:51.641Z,13.30
2022-10-17T00:40:19.010Z,13.27
2022-10-17T00:42:47.834Z,13.21
2022-10-17T00:45:20.535Z,13.18
2022-10-17T00:48:01.661Z,13.12
2022-10-17T00:50:30.730Z,13.22
2022-10-17T00:53:01.846Z,13.37
2022-10-17T00:55:33.601Z,13.56
2022-10-17T00:58:03.627Z,13.50
2022-10-17T01:00:31.495Z,13.41
2022-10-17T01:02:58.815Z,13.38
2022-10-17T01:05:26.778Z,13.30
2022-10-17T01:07:56.088Z,13.22
2022-10-17T01:10:30.676Z,13.11
2022-10-17T01:13:25.240Z,13.13
2022-10-17T01:16:32.611Z,13.35
2022-10-17T01:19:27.706Z,13.18
2022-10-17T01:22:24.220Z,12.90
2022-10-17T01:25:00.497Z,12.88
2022-10-17T01:27:44.072Z,12.78
2022-10-17T01:30:32.209Z,12.74
2022-10-17T01:33:09.667Z,12.84
2022-10-17T01:35:43.906Z,12.85
2022-10-17T01:38:19.313Z,12.98
2022-10-17T01:41:17.227Z,12.90
2022-10-17T01:43:59.862Z,13.11
2022-10-17T01:46:37.720Z,13.11
2022-10-17T01:49:08.839Z,13.01
2022-10-17T01:51:45.456Z,12.98
2022-10-17T01:54:21.845Z,13.05
2022-10-17T01:56:53.150Z,13.10
2022-10-17T01:59:25.288Z,13.11
2022-10-17T02:01:55.857Z,12.98
2022-10-17T02:04:24.218Z,12.87
2022-10-17T02:06:51.559Z,12.90
2022-10-17T02:09:24.501Z,12.97
2022-10-17T02:12:18.315Z,13.05
2022-10-17T02:15:05.498Z,13.07
2022-10-17T02:17:43.263Z,13.05
2022-10-17T02:20:25.516Z,13.08
2022-10-17T02:23:07.478Z,13.15
2022-10-17T02:25:49.202Z,13.54
2022-10-17T02:28:32.530Z,13.67
2022-10-17T02:31:23.127Z,13.62
2022-10-17T02:33:57.089Z,13.51
2022-10-17T02:36:29.450Z,13.41
2022-10-17T02:38:59.175Z,13.42
2022-10-17T02:43:57.626Z,13.38
2022-10-17T02:46:29.043Z,13.25
2022-10-17T02:49:04.576Z,13.09
2022-10-17T02:52:02.058Z,12.95
2022-10-17T02:54:39.478Z,13.07
2022-10-17T02:57:11.055Z,12.93
2022-10-17T02:59:41.778Z,12.80
2022-10-17T03:02:09.226Z,12.67
2022-10-17T03:04:36.653Z,12.57
2022-10-17T03:07:04.046Z,12.70
2022-10-17T03:09:31.413Z,12.55
2022-10-17T03:11:58.758Z,12.68
2022-10-17T03:14:26.120Z,12.61
2022-10-17T03:16:53.483Z,12.52
2022-10-17T03:19:20.925Z,12.40
2022-10-17T03:21:48.649Z,12.39
2022-10-17T03:24:16.057Z,12.43
2022-10-17T03:26:43.470Z,12.47
2022-10-17T03:29:11.097Z,12.40
2022-10-17T03:31:38.962Z,12.35
2022-10-17T03:34:07.526Z,12.20
2022-10-17T03:36:34.887Z,12.19
2022-10-17T03:39:02.450Z,12.17
2022-10-17T03:41:29.845Z,12.05
2022-10-17T03:43:57.149Z,11.93
2022-10-17T03:46:25.277Z,11.87
2022-10-17T03:48:54.275Z,11.83
2022-10-17T03:51:21.589Z,11.95
2022-10-17T03:53:53.992Z,11.95
2022-10-17T03:56:24.286Z,12.11
2022-10-17T03:58:58.002Z,12.13
2022-10-17T04:01:25.673Z,12.06
2022-10-17T04:03:55.239Z,12.07
2022-10-17T04:06:23.356Z,12.14
2022-10-17T04:08:51.076Z,11.99
2022-10-17T04:11:25.306Z,11.95
2022-10-17T04:13:57.199Z,11.92
2022-10-17T04:16:26.398Z,12.04
2022-10-17T04:19:00.331Z,11.91
2022-10-17T04:21:31.938Z,11.79
2022-10-17T04:24:04.583Z,11.82
2022-10-17T04:26:55.060Z,11.67
2022-10-17T04:29:26.134Z,11.51
2022-10-17T04:31:59.030Z,11.52
2022-10-17T04:34:35.010Z,11.55
2022-10-17T04:37:02.715Z,11.58
2022-10-17T04:39:30.250Z,11.55
2022-10-17T04:41:58.280Z,11.60
2022-10-17T04:44:25.726Z,11.58
2022-10-17T04:46:53.221Z,11.72
2022-10-17T04:49:20.647Z,11.79
2022-10-17T04:51:52.459Z,11.63
2022-10-17T04:54:26.463Z,11.57
2022-10-17T04:57:03.602Z,11.52
2022-10-17T04:59:31.568Z,11.64
2022-10-17T05:02:15.533Z,11.71
2022-10-17T05:04:46.625Z,11.98
2022-10-17T05:07:15.374Z,11.85
2022-10-17T05:09:59.004Z,11.62
2022-10-17T05:12:26.782Z,11.60
2022-10-17T05:14:54.567Z,11.64
2022-10-17T05:17:24.385Z,11.59
2022-10-17T05:19:51.688Z,11.62
2022-10-17T05:22:19.256Z,11.67
2022-10-17T05:24:46.747Z,11.66
2022-10-17T05:27:14.173Z,11.74
2022-10-17T05:29:41.609Z,11.66
2022-10-17T05:32:17.033Z,11.67
2022-10-17T05:34:44.768Z,11.81
2022-10-17T05:37:12.224Z,11.92
2022-10-17T05:39:40.516Z,12.22
2022-10-17T05:42:09.894Z,12.91
2022-10-17T05:44:37.427Z,13.15
2022-10-17T05:47:05.880Z,13.13
2022-10-17T05:49:44.959Z,13.08
2022-10-17T05:52:18.241Z,13.08
2022-10-17T05:54:56.951Z,13.16
2022-10-17T05:57:27.601Z,13.06
2022-10-17T05:59:55.306Z,12.84
2022-10-17T06:02:23.080Z,12.78
2022-10-17T06:04:50.712Z,12.80
2022-10-17T06:07:20.759Z,12.90
2022-10-17T06:09:49.907Z,13.04
2022-10-17T06:12:18.671Z,12.95
2022-10-17T06:14:46.796Z,13.05
2022-10-17T06:17:16.366Z,13.16
2022-10-17T06:19:47.891Z,13.30
2022-10-17T06:22:16.281Z,13.48
2022-10-17T06:24:44.167Z,13.64
2022-10-17T06:27:12.678Z,13.78
2022-10-17T06:29:41.433Z,13.92
2022-10-17T06:32:12.561Z,14.12
2022-10-17T06:34:43.484Z,14.35
2022-10-17T06:37:11.178Z,14.56
2022-10-17T06:39:40.347Z,14.53
2022-10-17T06:42:12.824Z,14.59
2022-10-17T06:44:49.336Z,14.75
2022-10-17T06:47:22.868Z,14.62
2022-10-17T06:49:52.779Z,14.68
2022-10-17T06:52:40.298Z,14.74
2022-10-17T06:55:26.109Z,14.92
2022-10-17T06:58:11.875Z,15.05
2022-10-17T07:01:17.697Z,15.18
2022-10-17T07:03:50.397Z,15.31
2022-10-17T07:06:18.343Z,15.45
2022-10-17T07:08:46.881Z,15.70
2022-10-17T07:11:19.472Z,15.99
2022-10-17T07:13:49.869Z,16.16
2022-10-17T07:16:17.771Z,16.22
2022-10-17T07:18:52.591Z,16.48
2022-10-17T07:21:20.438Z,16.63
2022-10-17T07:23:47.957Z,16.83
2022-10-17T07:26:17.817Z,16.97
2022-10-17T07:28:47.108Z,17.44
2022-10-17T07:31:28.435Z,17.92
2022-10-17T07:33:55.915Z,17.83
2022-10-17T07:36:30.978Z,17.52
2022-10-17T07:39:00.295Z,17.65
2022-10-17T07:41:28.203Z,17.89
2022-10-17T07:43:56.637Z,17.92
2022-10-17T07:46:30.057Z,17.94
2022-10-17T07:48:57.587Z,18.01
2022-10-17T07:51:25.106Z,18.20
2022-10-17T07:53:52.553Z,18.13
2022-10-17T07:56:21.748Z,18.27
2022-10-17T07:58:49.089Z,18.48
2022-10-17T08:01:16.552Z,18.12
2022-10-17T08:03:48.958Z,18.52
2022-10-17T08:06:16.378Z,18.59
2022-10-17T08:08:44.113Z,18.76
2022-10-17T08:11:14.413Z,18.92
2022-10-17T08:13:42.297Z,19.11
2022-10-17T08:16:12.339Z,19.40
2022-10-17T08:18:41.501Z,19.47
2022-10-17T08:21:09.834Z,19.47
2022-10-17T08:23:37.961Z,19.62
2022-10-17T08:26:10.930Z,20.04
2022-10-17T08:28:42.712Z,19.95
2022-10-17T08:31:16.043Z,20.03
2022-10-17T08:33:43.428Z,20.11
2022-10-17T08:36:14.130Z,20.46
2022-10-17T08:38:43.892Z,20.52
2022-10-17T08:41:22.822Z,20.83
2022-10-17T08:44:27.507Z,21.09
2022-10-17T08:46:59.303Z,21.22
2022-10-17T08:49:42.392Z,21.24
2022-10-17T08:52:30.546Z,21.48
2022-10-17T08:54:58.188Z,21.66
2022-10-17T08:57:26.540Z,21.70
2022-10-17T08:59:55.441Z,21.97
2022-10-17T09:02:31.772Z,22.07
2022-10-17T09:05:36.152Z,22.16
2022-10-17T09:08:32.286Z,22.64
2022-10-17T09:11:21.387Z,22.66
2022-10-17T09:13:51.791Z,22.58
2022-10-17T09:16:55.210Z,22.36
2022-10-17T09:20:10.207Z,22.49
2022-10-17T09:23:06.092Z,22.49
2022-10-17T09:25:42.889Z,22.83
2022-10-17T09:28:14.360Z,22.92
2022-10-17T09:30:52.682Z,23.14
2022-10-17T09:33:35.657Z,23.31
2022-10-17T09:36:37.486Z,23.29
2022-10-17T09:39:18.009Z,23.13
2022-10-17T09:41:49.114Z,22.89
2022-10-17T09:44:20.895Z,22.71
2022-10-17T09:47:17.157Z,23.42
2022-10-17T09:49:46.818Z,23.78
2022-10-17T09:52:34.827Z,23.88
2022-10-17T09:55:20.581Z,24.16
2022-10-17T09:58:01.050Z,24.31
2022-10-17T10:00:38.507Z,24.08
2022-10-17T10:03:13.363Z,24.04
2022-10-17T10:05:44.404Z,24.29
2022-10-17T10:08:18.226Z,24.14
2022-10-17T10:10:46.105Z,24.12
2022-10-17T10:13:13.302Z,23.99
2022-10-17T10:15:42.554Z,23.80
2022-10-17T10:18:25.314Z,23.82
2022-10-17T10:21:09.520Z,24.12
2022-10-17T10:23:42.384Z,24.30
2022-10-17T10:26:21.829Z,24.16
2022-10-17T10:29:06.909Z,23.88
2022-10-17T10:31:37.904Z,24.35
2022-10-17T10:34:20.717Z,24.55
2022-10-17T10:37:00.036Z,24.79
2022-10-17T10:39:34.066Z,24.67
2022-10-17T10:42:03.596Z,24.84
2022-10-17T10:44:32.569Z,25.19
2022-10-17T10:47:17.229Z,24.92
2022-10-17T10:49:45.595Z,24.81
2022-10-17T10:52:22.807Z,24.47
2022-10-17T10:55:05.456Z,24.55
2022-10-17T10:57:37.263Z,24.38
2022-10-17T11:00:15.852Z,24.76
2022-10-17T11:02:54.141Z,25.24
2022-10-17T11:05:40.881Z,25.44
2022-10-17T11:08:14.806Z,25.42
2022-10-17T11:10:52.261Z,25.11
2022-10-17T11:13:43.906Z,25.23
2022-10-17T11:16:17.377Z,25.56
2022-10-17T12:00:32.488Z,29.98
2022-10-17T12:03:07.524Z,27.29
2022-10-17T12:05:41.128Z,26.56
2022-10-17T12:08:33.744Z,26.39
2022-10-17T12:11:38.298Z,26.18
2022-10-17T12:14:45.391Z,25.52
2022-10-17T12:17:35.239Z,24.88
2022-10-17T12:20:19.059Z,24.78
2022-10-17T12:22:58.167Z,24.80
2022-10-17T12:25:32.983Z,24.90
2022-10-17T12:28:14.615Z,24.83
2022-10-17T12:31:13.871Z,24.84
2022-10-17T12:33:55.650Z,25.14
2022-10-17T12:36:23.093Z,25.20
2022-10-17T12:38:53.223Z,25.28
2022-10-17T12:41:39.208Z,24.53
2022-10-17T12:44:14.704Z,24.63
2022-10-17T12:46:58.230Z,24.65
2022-10-17T12:49:43.221Z,24.71
2022-10-17T12:52:27.650Z,24.46
2022-10-17T12:55:10.867Z,24.71
2022-10-17T12:57:51.071Z,24.83
2022-10-17T13:00:59.619Z,24.46
2022-10-17T13:03:35.411Z,24.50
2022-10-17T13:06:07.275Z,24.61
2022-10-17T13:08:39.414Z,24.43
2022-10-17T13:11:09.223Z,24.44
2022-10-17T13:13:39.469Z,24.57
2022-10-17T13:16:07.144Z,24.55
2022-10-17T13:18:34.996Z,24.45
2022-10-17T13:21:06.861Z,24.65
2022-10-17T13:23:37.205Z,24.64
2022-10-17T13:26:20.359Z,24.88
2022-10-17T13:29:06.554Z,24.68
2022-10-17T13:31:39.039Z,24.36
2022-10-17T13:34:16.953Z,24.59
2022-10-17T13:36:48.874Z,24.78
2022-10-17T13:39:23.217Z,24.78
2022-10-17T13:41:57.143Z,25.00
2022-10-17T13:44:29.403Z,24.78
2022-10-17T13:46:56.738Z,24.55
2022-10-17T13:49:34.194Z,24.53
2022-10-17T13:52:04.407Z,24.43
2022-10-17T13:54:40.472Z,24.20
2022-10-17T13:57:29.505Z,24.41
2022-10-17T14:00:10.053Z,24.57
2022-10-17T14:02:42.364Z,24.70
2022-10-17T14:05:17.887Z,24.60
2022-10-17T14:08:13.042Z,24.35
2022-10-17T14:10:44.607Z,24.06
2022-10-17T14:13:27.447Z,23.91
2022-10-17T14:15:59.305Z,23.91
2022-10-17T14:18:36.805Z,23.86
2022-10-17T14:24:14.412Z,23.64
2022-10-17T14:26:55.700Z,23.58
2022-10-17T14:29:25.370Z,23.33
2022-10-17T14:32:18.080Z,23.31
2022-10-17T14:34:46.850Z,23.23
2022-10-17T14:37:35.212Z,23.13
2022-10-17T14:40:06.031Z,23.02
2022-10-17T14:42:40.750Z,23.11
2022-10-17T14:45:13.425Z,22.94
2022-10-17T14:47:43.909Z,22.91
2022-10-17T14:50:11.687Z,22.83
2022-10-17T14:52:40.050Z,22.82
2022-10-17T14:55:28.255Z,22.80
2022-10-17T14:57:55.617Z,22.76
2022-10-17T15:00:24.616Z,22.59
2022-10-17T15:02:54.990Z,22.46
2022-10-17T15:05:23.720Z,22.42
2022-10-17T15:07:51.597Z,22.32
2022-10-17T15:10:35.988Z,22.23
2022-10-17T15:15:52.612Z,22.01
2022-10-17T15:18:20.027Z,21.89
2022-10-17T15:20:50.089Z,21.81
2022-10-17T15:23:23.538Z,21.68
2022-10-17T15:25:50.986Z,21.62
2022-10-17T15:28:18.378Z,21.50
2022-10-17T15:30:45.955Z,21.39
2022-10-17T15:33:13.410Z,21.30
2022-10-17T15:35:43.480Z,21.18
2022-10-17T15:38:18.465Z,21.07
2022-10-17T15:40:49.127Z,20.81
2022-10-17T15:43:19.855Z,20.62
2022-10-17T15:45:47.923Z,20.47
2022-10-17T15:48:31.626Z,20.23
2022-10-17T15:50:59.082Z,20.05
2022-10-17T15:53:26.704Z,19.94
2022-10-17T15:55:54.190Z,19.85
2022-10-17T15:58:21.596Z,19.71
2022-10-17T16:00:49.267Z,19.58
2022-10-17T16:03:16.771Z,19.58
2022-10-17T16:05:44.171Z,19.55
2022-10-17T16:08:11.560Z,19.39
2022-10-17T16:10:40.843Z,19.27
2022-10-17T16:13:20.755Z,19.19
2022-10-17T16:15:48.237Z,18.95
2022-10-17T16:18:15.649Z,18.90
2022-10-17T16:20:43.125Z,18.83
2022-10-17T16:23:12.852Z,18.78
2022-10-17T16:25:41.043Z,18.83
2022-10-17T16:28:08.810Z,18.71
2022-10-17T16:30:42.812Z,18.64
2022-10-17T16:33:10.704Z,18.50
2022-10-17T16:35:38.219Z,18.44
2022-10-17T16:38:08.010Z,18.41
2022-10-17T16:40:38.322Z,18.35
2022-10-17T16:43:05.967Z,18.25
2022-10-17T16:45:33.482Z,18.38
2022-10-17T16:48:01.536Z,18.39
2022-10-17T16:50:31.427Z,18.36
2022-10-17T16:52:58.868Z,18.25
2022-10-17T16:55:26.229Z,18.12
2022-10-17T16:57:53.909Z,17.95
2022-10-17T17:00:21.479Z,17.93
2022-10-17T17:02:49.330Z,17.96
2022-10-17T17:05:16.751Z,17.84
2022-10-17T17:07:44.273Z,17.68
2022-10-17T17:10:11.587Z,17.76
2022-10-17T17:12:39.053Z,17.76
2022-10-17T17:15:06.583Z,17.80
2022-10-17T17:17:49.701Z,17.67
2022-10-17T17:20:19.785Z,17.62
2022-10-17T17:22:47.157Z,17.55
2022-10-17T17:25:14.731Z,17.51
2022-10-17T17:27:42.184Z,17.49
2022-10-17T17:30:10.048Z,17.45
2022-10-17T17:32:37.503Z,17.48
2022-10-17T17:35:05.259Z,17.45
2022-10-17T17:37:32.790Z,17.36
2022-10-17T17:40:00.490Z,17.26
2022-10-17T17:42:27.948Z,17.20
2022-10-17T17:44:55.398Z,17.13
2022-10-17T17:47:22.732Z,17.16
2022-10-17T17:49:50.179Z,17.16
2022-10-17T17:52:17.547Z,17.24
2022-10-17T17:54:46.158Z,17.27
2022-10-17T17:57:13.676Z,17.15
2022-10-17T17:59:41.722Z,17.20
2022-10-17T18:02:11.319Z,17.19
2022-10-17T18:04:38.831Z,17.06
2022-10-17T18:07:06.241Z,17.00
2022-10-17T18:09:33.804Z,17.08
2022-10-17T18:12:01.575Z,16.97
2022-10-17T18:14:28.980Z,16.92
2022-10-17T18:16:56.635Z,16.96
2022-10-17T18:19:24.158Z,16.98
2022-10-17T18:21:51.654Z,16.82
2022-10-17T18:24:19.427Z,16.72
2022-10-17T18:26:46.857Z,16.70
2022-10-17T18:29:14.365Z,16.76
2022-10-17T18:31:41.829Z,16.83
2022-10-17T18:34:10.026Z,16.75
2022-10-17T18:36:37.987Z,16.77
2022-10-17T18:39:05.864Z,16.87
2022-10-17T18:41:34.131Z,16.75
2022-10-17T18:44:03.213Z,16.66
2022-10-17T18:46:35.911Z,16.47
2022-10-17T18:49:03.744Z,16.40
2022-10-17T18:51:31.284Z,16.28
2022-10-17T18:53:59.401Z,16.28
2022-10-17T18:56:30.275Z,16.45
2022-10-17T18:58:58.139Z,16.54
2022-10-17T19:01:27.619Z,16.52
2022-10-17T19:03:57.609Z,16.48
2022-10-17T19:06:32.110Z,16.33
2022-10-17T19:09:01.521Z,16.18
2022-10-17T19:11:31.074Z,16.09
2022-10-17T19:14:01.099Z,15.94
2022-10-17T19:16:33.614Z,15.92
2022-10-17T19:19:07.164Z,15.84
2022-10-17T19:21:35.146Z,15.82
2022-10-17T19:24:05.527Z,16.03
2022-10-17T19:26:35.572Z,16.03
2022-10-17T19:29:04.385Z,15.84
2022-10-17T19:31:33.030Z,15.89
2022-10-17T19:34:01.145Z,15.75
2022-10-17T19:36:33.315Z,15.68
2022-10-17T19:39:07.561Z,15.65
2022-10-17T19:41:36.681Z,15.68
2022-10-17T19:44:04.232Z,15.71
2022-10-17T19:46:32.430Z,15.74
2022-10-17T19:49:00.437Z,15.65
2022-10-17T19:51:29.357Z,15.49
2022-10-17T19:54:00.621Z,15.40
2022-10-17T19:56:29.993Z,15.35
2022-10-17T19:58:58.792Z,15.38
2022-10-17T20:01:34.083Z,15.32
2022-10-17T20:04:02.076Z,15.26
2022-10-17T20:06:29.532Z,15.32
2022-10-17T20:08:57.185Z,15.19
2022-10-17T20:11:27.727Z,15.21
2022-10-17T20:13:55.987Z,15.15
2022-10-17T20:18:56.495Z,15.20
2022-10-17T20:21:27.618Z,15.00
2022-10-17T20:23:56.581Z,15.02
2022-10-17T20:26:37.453Z,15.14
2022-10-17T20:29:09.051Z,15.00
2022-10-17T20:31:36.995Z,14.90
2022-10-17T20:34:04.466Z,14.78
2022-10-17T20:36:32.646Z,14.71
2022-10-17T20:39:00.737Z,14.62
2022-10-17T20:41:28.028Z,14.66
2022-10-17T20:43:56.207Z,14.59
2022-10-17T20:46:36.427Z,14.63
2022-10-17T20:49:09.064Z,14.53
2022-10-17T20:51:36.796Z,14.68
2022-10-17T20:54:04.963Z,14.62
2022-10-17T20:56:33.758Z,14.54
2022-10-17T20:59:04.265Z,14.55
2022-10-17T21:01:33.530Z,14.51
2022-10-17T21:04:21.353Z,14.49
2022-10-17T21:06:49.002Z,14.59
2022-10-17T21:09:16.451Z,14.51
2022-10-17T21:11:44.408Z,14.40
2022-10-17T21:14:12.631Z,14.27
2022-10-17T21:16:41.533Z,14.14
2022-10-17T21:19:12.346Z,14.08
2022-10-17T21:21:44.845Z,14.07
2022-10-17T21:24:17.799Z,14.11
2022-10-17T21:26:46.798Z,13.94
2022-10-17T21:29:14.825Z,13.99
2022-10-17T21:31:44.991Z,13.94
2022-10-17T21:34:26.712Z,13.88
2022-10-17T21:36:54.052Z,13.76
2022-10-17T21:39:22.245Z,13.78
2022-10-17T21:41:49.564Z,13.83
2022-10-17T21:44:19.285Z,13.80
2022-10-17T21:46:47.775Z,13.80
2022-10-17T21:49:17.511Z,13.74
2022-10-17T21:51:45.651Z,13.60
2022-10-17T21:54:13.010Z,13.58
2022-10-17T21:56:40.986Z,13.59
2022-10-17T21:59:08.928Z,13.67
2022-10-17T22:01:39.539Z,13.71
2022-10-17T22:04:09.116Z,13.63
2022-10-17T22:06:40.686Z,13.61
2022-10-17T22:09:20.971Z,13.54
2022-10-17T22:11:50.931Z,13.64
2022-10-17T22:14:20.122Z,13.50
2022-10-17T22:16:48.346Z,13.40
2022-10-17T22:19:18.905Z,13.39
2022-10-17T22:21:46.727Z,13.35
2022-10-17T22:24:15.803Z,13.40
2022-10-17T22:26:44.707Z,13.40
2022-10-17T22:29:12.960Z,13.23
2022-10-17T22:31:42.929Z,13.26
2022-10-17T22:34:12.740Z,13.30
2022-10-17T22:36:40.956Z,13.38
2022-10-17T22:39:08.942Z,13.37
2022-10-17T22:41:36.296Z,13.48
2022-10-17T22:44:03.929Z,13.41
2022-10-17T22:46:31.199Z,13.38
2022-10-17T22:48:58.663Z,13.31
2022-10-17T22:51:26.023Z,13.25
2022-10-17T22:53:53.282Z,13.23
2022-10-17T22:56:21.744Z,13.09
2022-10-17T22:58:48.970Z,13.04
2022-10-17T23:01:19.549Z,13.10
2022-10-17T23:03:47.713Z,13.07
2022-10-17T23:06:15.441Z,13.00
2022-10-17T23:08:43.978Z,13.05
2022-10-17T23:11:11.886Z,12.91
2022-10-17T23:13:41.108Z,12.86
2022-10-17T23:16:09.518Z,12.82
2022-10-17T23:18:38.084Z,12.86
2022-10-17T23:21:06.084Z,12.78
2022-10-17T23:23:33.622Z,12.88
2022-10-17T23:26:10.552Z,12.81
2022-10-17T23:28:38.877Z,12.80
2022-10-17T23:31:18.656Z,12.63
2022-10-17T23:33:49.101Z,12.65
2022-10-17T23:36:19.728Z,12.51
2022-10-17T23:38:48.045Z,12.43
2022-10-17T23:41:16.148Z,12.49
2022-10-17T23:43:44.380Z,12.46
2022-10-17T23:46:14.202Z,12.40
2022-10-17T23:48:41.925Z,12.37
2022-10-17T23:51:10.695Z,12.18
2022-10-17T23:53:39.305Z,12.25
2022-10-17T23:56:08.077Z,12.26
2022-10-17T23:58:35.955Z,12.31
